createdAt,value
2022-08-22T00:00:15.463Z,4.87
2022-08-22T00:02:46.652Z,3.80
2022-08-22T00:03:07.261Z,4.80
2022-08-22T00:03:15.702Z,4.53
2022-08-22T00:03:25.524Z,4.23
2022-08-22T00:06:57.883Z,4.27
2022-08-22T00:10:20.328Z,4.60
2022-08-22T00:13:42.450Z,4.97
2022-08-22T00:16:53.707Z,4.67
2022-08-22T00:20:04.957Z,5.17
2022-08-22T00:23:26.138Z,4.50
2022-08-22T00:26:45.109Z,5.07
2022-08-22T00:30:00.612Z,4.10
2022-08-22T00:33:16.492Z,4.53
2022-08-22T00:36:30.642Z,4.43
2022-08-22T00:39:56.966Z,4.80
2022-08-22T00:43:15.707Z,4.37
2022-08-22T00:46:37.697Z,4.73
2022-08-22T00:49:50.926Z,4.40
2022-08-22T00:53:11.068Z,4.83
2022-08-22T00:56:28.931Z,4.90
2022-08-22T00:59:52.556Z,4.73
2022-08-22T01:03:32.852Z,5.00
2022-08-22T01:06:34.828Z,4.67
2022-08-22T01:10:21.431Z,4.27
2022-08-22T01:13:53.112Z,4.87
2022-08-22T01:17:07.748Z,4.93
2022-08-22T01:20:24.920Z,4.13
2022-08-22T01:23:45.187Z,4.27
2022-08-22T01:26:47.062Z,4.40
2022-08-22T01:30:03.951Z,4.03
2022-08-22T01:33:06.682Z,4.23
2022-08-22T01:36:20.817Z,4.63
2022-08-22T01:39:29.002Z,4.47
2022-08-22T01:42:52.717Z,4.27
2022-08-22T01:46:44.307Z,4.67
2022-08-22T01:49:57.662Z,4.37
2022-08-22T01:53:07.383Z,4.80
2022-08-22T01:56:15.329Z,5.10
2022-08-22T01:59:33.796Z,4.60
2022-08-22T02:03:05.857Z,4.70
2022-08-22T02:06:14.593Z,4.43
2022-08-22T02:09:53.938Z,4.50
2022-08-22T02:13:14.247Z,4.57
2022-08-22T02:16:18.996Z,5.17
2022-08-22T02:19:40.872Z,5.17
2022-08-22T02:22:58.066Z,4.27
2022-08-22T02:26:03.102Z,4.33
2022-08-22T02:29:15.485Z,4.87
2022-08-22T02:32:34.657Z,4.23
2022-08-22T02:35:47.428Z,4.40
2022-08-22T02:38:56.512Z,4.80
2022-08-22T02:42:36.071Z,4.93
2022-08-22T02:45:49.643Z,4.80
2022-08-22T02:49:13.578Z,5.40
2022-08-22T02:52:27.283Z,5.73
2022-08-22T02:55:46.781Z,5.33
2022-08-22T02:59:00.017Z,4.90
2022-08-22T03:02:28.023Z,5.40
2022-08-22T03:05:51.677Z,5.10
2022-08-22T03:09:08.078Z,4.40
2022-08-22T03:12:32.387Z,4.80
2022-08-22T03:15:55.287Z,4.47
2022-08-22T03:19:18.771Z,4.77
2022-08-22T03:22:26.971Z,5.00
2022-08-22T03:25:38.898Z,4.67
2022-08-22T03:28:52.657Z,5.47
2022-08-22T03:32:21.941Z,4.60
2022-08-22T03:35:38.367Z,5.07
2022-08-22T03:39:03.487Z,5.10
2022-08-22T03:42:52.664Z,4.90
2022-08-22T03:46:34.352Z,4.90
2022-08-22T03:49:48.326Z,4.53
2022-08-22T03:53:15.461Z,4.40
2022-08-22T03:56:28.197Z,5.13
2022-08-22T03:59:53.947Z,4.60
2022-08-22T04:03:35.172Z,5.27
2022-08-22T04:07:31.638Z,5.90
2022-08-22T04:11:04.182Z,5.20
2022-08-22T04:14:35.969Z,5.60
2022-08-22T04:18:07.131Z,5.60
2022-08-22T04:21:26.167Z,5.60
2022-08-22T04:24:55.751Z,5.00
2022-08-22T04:28:10.677Z,5.03
2022-08-22T04:31:29.689Z,5.10
2022-08-22T04:34:37.627Z,5.90
2022-08-22T04:37:51.544Z,5.90
2022-08-22T04:41:05.237Z,5.73
2022-08-22T04:44:44.742Z,6.33
2022-08-22T04:47:54.381Z,5.73
2022-08-22T04:51:24.101Z,5.43
2022-08-22T04:54:59.787Z,5.80
2022-08-22T04:58:15.272Z,5.33
2022-08-22T05:01:21.013Z,5.47
2022-08-22T05:04:31.141Z,5.37
2022-08-22T05:07:41.482Z,5.10
2022-08-22T05:10:49.249Z,5.07
2022-08-22T05:13:58.774Z,5.83
2022-08-22T05:17:01.646Z,5.57
2022-08-22T05:20:08.433Z,4.93
2022-08-22T05:23:18.638Z,5.43
2022-08-22T05:26:21.256Z,5.73
2022-08-22T05:29:29.273Z,5.07
2022-08-22T05:32:50.225Z,5.40
2022-08-22T05:36:04.814Z,5.50
2022-08-22T05:39:23.710Z,4.50
2022-08-22T05:42:31.327Z,5.27
2022-08-22T05:45:34.570Z,5.07
2022-08-22T05:48:46.852Z,5.47
2022-08-22T05:52:10.500Z,4.77
2022-08-22T05:55:15.633Z,5.80
2022-08-22T05:58:21.777Z,6.57
2022-08-22T06:02:11.878Z,6.40
2022-08-22T06:05:14.852Z,5.67
2022-08-22T06:08:37.642Z,5.57
2022-08-22T06:12:00.924Z,5.47
2022-08-22T06:15:41.822Z,5.83
2022-08-22T06:18:44.802Z,5.10
2022-08-22T06:21:50.248Z,6.00
2022-08-22T06:24:58.412Z,5.30
2022-08-22T06:28:24.117Z,5.00
2022-08-22T06:31:42.311Z,5.30
2022-08-22T06:34:46.376Z,5.57
2022-08-22T06:37:50.342Z,5.07
2022-08-22T06:40:54.506Z,4.70
2022-08-22T06:44:00.115Z,5.60
2022-08-22T06:47:06.537Z,5.13
2022-08-22T06:50:35.702Z,4.60
2022-08-22T06:53:48.232Z,4.97
2022-08-22T06:56:54.036Z,4.80
2022-08-22T06:59:58.092Z,4.67
2022-08-22T07:03:29.313Z,3.77
2022-08-22T07:06:37.447Z,4.37
2022-08-22T07:09:41.702Z,4.00
2022-08-22T07:12:51.773Z,3.97
2022-08-22T07:16:04.382Z,3.60
2022-08-22T07:19:09.727Z,4.03
2022-08-22T07:22:13.254Z,3.67
2022-08-22T07:25:16.339Z,3.97
2022-08-22T07:29:03.361Z,3.47
2022-08-22T07:32:42.192Z,3.85
2022-08-22T07:35:53.508Z,4.00
2022-08-22T07:39:23.322Z,3.40
2022-08-22T07:42:44.329Z,3.80
2022-08-22T07:45:56.985Z,3.70
2022-08-22T07:49:22.936Z,4.00
2022-08-22T07:52:33.256Z,4.15
2022-08-22T07:55:49.269Z,3.72
2022-08-22T07:59:12.807Z,3.97
2022-08-22T08:02:18.234Z,4.63
2022-08-22T08:05:26.310Z,4.10
2022-08-22T08:08:44.181Z,4.20
2022-08-22T08:11:51.361Z,4.97
2022-08-22T08:14:57.208Z,4.05
2022-08-22T08:18:06.228Z,5.22
2022-08-22T08:21:11.519Z,5.10
2022-08-22T08:24:17.459Z,4.68
2022-08-22T08:27:45.203Z,4.82
2022-08-22T08:31:03.630Z,5.30
2022-08-22T08:34:14.111Z,5.32
2022-08-22T08:37:46.451Z,5.32
2022-08-22T08:41:02.088Z,5.18
2022-08-22T08:44:43.562Z,5.00
2022-08-22T08:48:21.827Z,5.30
2022-08-22T08:51:48.941Z,6.32
2022-08-22T08:55:22.770Z,6.00
2022-08-22T08:59:01.350Z,5.45
2022-08-22T09:02:20.494Z,6.60
2022-08-22T09:05:56.852Z,5.72
2022-08-22T09:09:30.411Z,6.20
2022-08-22T09:13:11.047Z,5.65
2022-08-22T09:16:14.393Z,5.65
2022-08-22T09:19:25.583Z,5.75
2022-08-22T09:22:54.942Z,5.22
2022-08-22T09:26:04.955Z,4.53
2022-08-22T09:29:25.247Z,4.43
2022-08-22T09:32:49.714Z,5.10
2022-08-22T09:36:17.304Z,4.60
2022-08-22T09:39:37.622Z,4.22
2022-08-22T09:42:58.209Z,5.25
2022-08-22T09:46:14.392Z,4.13
2022-08-22T09:49:42.352Z,4.32
2022-08-22T09:53:03.891Z,4.75
2022-08-22T09:56:15.964Z,4.38
2022-08-22T09:59:58.401Z,4.50
2022-08-22T10:03:13.040Z,4.30
2022-08-22T10:06:29.307Z,5.07
2022-08-22T10:09:46.247Z,4.85
2022-08-22T10:13:00.830Z,3.90
2022-08-22T10:16:41.354Z,4.07
2022-08-22T10:19:55.101Z,3.60
2022-08-22T10:23:21.199Z,3.67
2022-08-22T10:26:25.649Z,4.25
2022-08-22T10:30:05.886Z,4.28
2022-08-22T10:33:41.622Z,3.95
2022-08-22T10:37:17.906Z,3.80
2022-08-22T10:40:48.573Z,4.07
2022-08-22T10:43:57.470Z,3.35
2022-08-22T10:47:19.035Z,3.53
2022-08-22T10:50:37.554Z,3.47
2022-08-22T10:54:20.291Z,2.97
2022-08-22T10:57:52.673Z,3.95
2022-08-22T11:01:00.493Z,3.28
2022-08-22T11:04:04.557Z,3.30
2022-08-22T11:07:14.671Z,3.30
2022-08-22T11:10:28.783Z,3.63
2022-08-22T11:13:42.291Z,3.38
2022-08-22T11:17:27.884Z,3.47
2022-08-22T11:20:57.726Z,3.28
2022-08-22T11:24:54.049Z,2.78
2022-08-22T11:28:28.735Z,3.13
2022-08-22T11:32:00.384Z,3.60
2022-08-22T11:35:24.386Z,3.20
2022-08-22T11:38:56.819Z,3.38
2022-08-22T11:42:14.249Z,2.97
2022-08-22T11:45:42.597Z,3.30
2022-08-22T11:48:51.418Z,3.25
2022-08-22T11:52:36.717Z,3.25
2022-08-22T11:55:50.307Z,2.83
2022-08-22T11:59:10.146Z,4.60
2022-08-22T12:02:28.960Z,3.28
2022-08-22T12:05:58.431Z,3.50
2022-08-22T12:09:14.178Z,3.67
2022-08-22T12:12:37.226Z,2.97
2022-08-22T12:16:04.059Z,3.30
2022-08-22T12:19:22.926Z,3.30
2022-08-22T12:22:40.582Z,3.45
2022-08-22T12:26:30.511Z,3.70
2022-08-22T12:30:14.382Z,3.38
2022-08-22T12:33:23.292Z,2.70
2022-08-22T12:36:51.917Z,2.47
2022-08-22T12:40:45.503Z,3.08
2022-08-22T12:43:52.113Z,2.45
2022-08-22T12:47:06.068Z,2.95
2022-08-22T12:50:54.188Z,3.03
2022-08-22T12:54:18.443Z,2.50
2022-08-22T12:57:25.114Z,2.58
2022-08-22T13:00:48.447Z,2.10
2022-08-22T13:03:58.549Z,2.67
2022-08-22T13:07:09.557Z,2.17
2022-08-22T13:10:34.012Z,2.25
2022-08-22T13:13:56.679Z,2.20
2022-08-22T13:17:10.280Z,1.95
2022-08-22T13:20:31.943Z,2.15
2022-08-22T13:23:47.166Z,1.90
2022-08-22T13:26:55.823Z,2.00
2022-08-22T13:30:03.414Z,2.00
2022-08-22T13:33:13.645Z,1.92
2022-08-22T13:36:19.689Z,1.95
2022-08-22T13:39:29.990Z,2.05
2022-08-22T13:42:35.533Z,2.22
2022-08-22T13:46:02.488Z,2.05
2022-08-22T13:49:10.577Z,2.25
2022-08-22T13:52:32.006Z,1.77
2022-08-22T13:55:49.088Z,1.95
2022-08-22T13:59:00.632Z,1.77
2022-08-22T14:02:15.132Z,1.90
2022-08-22T14:05:47.689Z,1.65
2022-08-22T14:08:51.136Z,1.70
2022-08-22T14:12:12.621Z,1.52
2022-08-22T14:15:23.557Z,1.70
2022-08-22T14:18:36.644Z,1.55
2022-08-22T14:21:54.373Z,1.80
2022-08-22T14:25:07.423Z,1.83
2022-08-22T14:28:30.855Z,1.90
2022-08-22T14:31:39.694Z,1.88
2022-08-22T14:34:45.447Z,1.65
2022-08-22T14:37:56.427Z,1.80
2022-08-22T14:41:05.690Z,2.03
2022-08-22T14:44:31.039Z,1.75
2022-08-22T14:48:29.222Z,2.03
2022-08-22T14:51:27.153Z,1.70
2022-08-22T14:54:32.269Z,1.40
2022-08-22T14:57:39.208Z,1.10
2022-08-22T15:00:45.838Z,1.63
2022-08-22T15:04:00.532Z,1.40
2022-08-22T15:07:02.962Z,2.30
2022-08-22T15:10:13.459Z,1.92
2022-08-22T15:13:25.151Z,2.00
2022-08-22T15:16:41.842Z,2.47
2022-08-22T15:19:47.299Z,2.58
2022-08-22T15:22:59.906Z,2.33
2022-08-22T15:26:13.257Z,2.22
2022-08-22T15:29:21.051Z,2.33
2022-08-22T15:32:29.694Z,2.00
2022-08-22T15:35:38.991Z,2.50
2022-08-22T15:39:09.827Z,2.42
2022-08-22T15:42:13.287Z,1.88
2022-08-22T15:45:22.382Z,2.03
2022-08-22T15:48:52.389Z,2.33
2022-08-22T15:52:03.873Z,2.80
2022-08-22T15:55:19.777Z,2.50
2022-08-22T15:58:26.471Z,2.80
2022-08-22T16:01:32.815Z,2.20
2022-08-22T16:04:47.631Z,2.80
2022-08-22T16:08:03.939Z,2.30
2022-08-22T16:11:27.557Z,2.30
2022-08-22T16:14:34.045Z,1.80
2022-08-22T16:17:43.512Z,2.58
2022-08-22T16:20:54.238Z,2.38
2022-08-22T16:24:21.875Z,2.10
2022-08-22T16:27:29.908Z,2.30
2022-08-22T16:30:35.560Z,2.53
2022-08-22T16:33:39.725Z,2.28
2022-08-22T16:37:07.387Z,2.50
2022-08-22T16:40:25.349Z,2.55
2022-08-22T16:43:28.985Z,2.35
2022-08-22T16:46:36.849Z,2.10
2022-08-22T16:49:51.526Z,2.10
2022-08-22T16:53:07.979Z,2.63
2022-08-22T16:56:36.801Z,1.85
2022-08-22T16:59:51.533Z,2.47
2022-08-22T17:03:16.564Z,2.30
2022-08-22T17:06:28.745Z,2.30
2022-08-22T17:10:01.630Z,3.28
2022-08-22T17:13:28.372Z,2.53
2022-08-22T17:17:01.771Z,2.72
2022-08-22T17:20:16.375Z,2.65
2022-08-22T17:23:41.894Z,2.40
2022-08-22T17:27:19.434Z,2.60
2022-08-22T17:30:44.017Z,2.70
2022-08-22T17:34:02.971Z,2.78
2022-08-22T17:37:33.991Z,2.88
2022-08-22T17:40:55.803Z,2.42
2022-08-22T17:44:49.291Z,2.22
2022-08-22T17:48:31.720Z,2.88
2022-08-22T17:51:58.712Z,2.78
2022-08-22T17:55:18.652Z,2.30
2022-08-22T17:58:37.412Z,2.33
2022-08-22T18:01:59.276Z,2.55
2022-08-22T18:05:17.219Z,2.30
2022-08-22T18:12:44.157Z,2.65
2022-08-22T18:15:57.094Z,2.63
2022-08-22T18:19:11.115Z,2.63
2022-08-22T18:22:57.352Z,2.80
2022-08-22T18:26:18.798Z,2.97
2022-08-22T18:29:26.282Z,3.13
2022-08-22T18:32:49.218Z,2.55
2022-08-22T18:36:01.788Z,2.78
2022-08-22T18:39:08.261Z,3.10
2022-08-22T18:42:24.599Z,2.92
2022-08-22T18:45:53.599Z,2.67
2022-08-22T18:49:15.225Z,2.88
2022-08-22T18:52:37.354Z,2.35
2022-08-22T18:55:52.164Z,2.55
2022-08-22T18:59:05.645Z,2.20
2022-08-22T19:02:39.987Z,2.63
2022-08-22T19:05:48.654Z,2.35
2022-08-22T19:08:59.714Z,2.65
2022-08-22T19:12:51.326Z,3.40
2022-08-22T19:16:52.013Z,2.90
2022-08-22T19:20:51.524Z,2.35
2022-08-22T19:23:56.739Z,2.10
2022-08-22T19:27:11.076Z,2.10
2022-08-22T19:30:39.069Z,2.28
2022-08-22T19:33:49.377Z,1.80
2022-08-22T19:37:30.773Z,2.28
2022-08-22T19:40:51.018Z,2.15
2022-08-22T19:43:55.427Z,2.20
2022-08-22T19:47:20.660Z,2.77
2022-08-22T19:50:31.231Z,2.50
2022-08-22T19:54:16.385Z,2.15
2022-08-22T19:57:47.374Z,2.20
2022-08-22T20:01:42.834Z,2.10
2022-08-22T20:05:16.100Z,2.10
2022-08-22T20:08:42.852Z,2.27
2022-08-22T20:12:15.463Z,2.73
2022-08-22T20:15:29.602Z,2.40
2022-08-22T20:19:06.351Z,2.33
2022-08-22T20:22:22.194Z,2.70
2022-08-22T20:25:51.464Z,2.27
2022-08-22T20:28:56.746Z,2.20
2022-08-22T20:31:59.588Z,2.43
2022-08-22T20:35:06.632Z,2.40
2022-08-22T20:38:15.865Z,1.80
2022-08-22T20:41:30.870Z,2.53
2022-08-22T20:44:46.278Z,2.03
2022-08-22T20:48:04.409Z,2.00
2022-08-22T20:51:10.558Z,2.10
2022-08-22T20:54:28.903Z,2.00
2022-08-22T20:57:43.359Z,1.90
2022-08-22T21:00:48.738Z,2.07
2022-08-22T21:03:54.889Z,2.40
2022-08-22T21:07:03.099Z,2.27
2022-08-22T21:10:35.747Z,2.40
2022-08-22T21:13:39.350Z,2.27
2022-08-22T21:16:41.371Z,2.27
2022-08-22T21:19:45.618Z,2.20
2022-08-22T21:22:51.139Z,2.17
2022-08-22T21:26:24.095Z,2.00
2022-08-22T21:29:33.883Z,2.27
2022-08-22T21:32:45.059Z,2.00
2022-08-22T21:35:55.107Z,2.40
2022-08-22T21:39:23.646Z,2.50
2022-08-22T21:42:32.566Z,2.00
2022-08-22T21:45:38.103Z,1.90
2022-08-22T21:49:00.177Z,2.23
2022-08-22T21:52:02.777Z,2.10
2022-08-22T21:55:30.611Z,1.90
2022-08-22T21:58:37.391Z,2.20
2022-08-22T22:01:42.650Z,1.87
2022-08-22T22:04:47.407Z,2.23
2022-08-22T22:07:50.839Z,2.23
2022-08-22T22:10:55.362Z,2.00
2022-08-22T22:13:59.101Z,1.90
2022-08-22T22:17:01.393Z,1.70
2022-08-22T22:20:07.744Z,1.70
2022-08-22T22:23:10.912Z,1.83
2022-08-22T22:26:14.087Z,1.93
2022-08-22T22:29:16.086Z,2.27
2022-08-22T22:32:18.343Z,2.13
2022-08-22T22:35:21.132Z,2.10
2022-08-22T22:38:24.359Z,2.30
2022-08-22T22:41:27.879Z,2.40
2022-08-22T22:44:29.813Z,2.10
2022-08-22T22:47:35.573Z,2.10
2022-08-22T22:50:46.972Z,2.13
2022-08-22T22:53:50.442Z,2.10
2022-08-22T22:56:52.372Z,1.77
2022-08-22T22:59:55.637Z,2.13
2022-08-22T23:02:57.875Z,2.17
2022-08-22T23:05:59.788Z,2.20
2022-08-22T23:09:03.358Z,1.57
2022-08-22T23:12:05.432Z,1.43
2022-08-22T23:15:08.181Z,1.30
2022-08-22T23:18:12.267Z,1.67
2022-08-22T23:21:22.477Z,1.70
2022-08-22T23:24:26.932Z,1.90
2022-08-22T23:27:29.842Z,1.67
2022-08-22T23:30:32.155Z,1.80
2022-08-22T23:33:35.579Z,1.30
2022-08-22T23:36:41.227Z,1.47
2022-08-22T23:39:43.438Z,1.40
2022-08-22T23:42:45.467Z,1.80
2022-08-22T23:45:47.413Z,1.93
2022-08-22T23:48:50.017Z,1.97
2022-08-22T23:51:54.715Z,1.53
2022-08-22T23:54:56.929Z,1.53
2022-08-22T23:57:59.042Z,1.70
